Latest Weather Observations for Sheoaks

IDV60801

Issued at 9:31 am EST Sunday 19 April 2015 (issued every 30 minutes, with the page automatically refreshed every 10 minutes)

About weather observations | Map of weather stations | Latest weather observations for VIC | Other Formats
Station Details ID: 087168 Name: SHEOAKS Lat: -37.91 Lon: 144.13 Height: 236.7 m
Data from the previous 72 hours. | See also: Recent months at Sheoaks
Date/Time
EST
Temp
°C
App
Temp
°C
Dew
Point
Rel
Hum
%
Delta-T
°C
Wind Press
QNH
hPa
Press
MSL
hPa
Rain
since 9 am
mm
Dir
 
Spd
km/h
Gust
km/h
Spd
kts
Gust
kts
19/09:30am 9.1 5.6 5.3 77 1.7 WSW 13 24 7 13 1027.8 1027.7 0.0
19/09:00am 8.5 5.9 6.1 85 1.1 W 9 15 5 8 1027.3 1027.2 1.8
19/08:30am 7.6 5.3 5.9 89 0.8 SW 7 11 4 6 1026.9 1026.8 1.8
19/08:00am 7.2 4.1 5.5 89 0.8 WSW 11 20 6 11 1026.3 1026.1 1.6
19/07:30am 7.0 3.8 5.0 87 0.9 WSW 11 19 6 10 1025.3 1025.1 1.4
19/07:00am 7.0 3.8 5.0 87 0.9 W 11 19 6 10 1024.6 1024.5 1.4
19/06:30am 7.0 4.1 4.8 86 1.0 WSW 9 19 5 10 1024.0 1023.9 1.4
19/06:00am 7.1 3.5 4.9 86 1.0 WSW 13 26 7 14 1023.5 1023.4 1.4
19/05:30am 6.8 3.2 4.8 87 0.9 W 13 20 7 11 1022.8 1022.6 1.4
19/05:00am 6.9 2.9 4.7 86 1.0 W 15 24 8 13 1022.2 1022.0 1.4
19/04:30am 7.2 2.8 5.0 86 1.0 W 17 28 9 15 1021.6 1021.4 1.4
19/04:00am 7.3 3.7 5.0 85 1.0 W 13 20 7 11 1021.1 1020.9 1.4
19/03:30am 7.5 4.3 5.1 85 1.1 W 11 19 6 10 1020.7 1020.5 1.4
19/03:00am 7.6 4.0 5.2 85 1.1 W 13 17 7 9 1020.5 1020.3 1.4
19/02:30am 7.9 4.4 5.4 84 1.1 W 13 19 7 10 1020.2 1020.1 1.4
19/02:00am 7.9 4.4 5.5 85 1.1 W 13 19 7 10 1019.9 1019.8 1.4
19/01:30am 8.4 4.3 6.0 85 1.1 W 17 22 9 12 1019.9 1019.8 1.4
19/01:00am 8.5 4.8 6.3 86 1.0 W 15 22 8 12 1019.5 1019.4 1.4
19/12:30am 8.8 5.2 6.8 87 0.9 W 15 24 8 13 1019.1 1018.9 1.4
19/12:00am 8.9 5.8 7.2 89 0.8 W 13 19 7 10 1018.8 1018.6 1.4
 
Date/Time
EST
Temp
°C
App
Temp
°C
Dew
Point
Rel
Hum
%
Delta-T
°C
Wind Press
QNH
hPa
Press
MSL
hPa
Rain
since 9 am
mm
Dir
 
Spd
km/h
Gust
km/h
Spd
kts
Gust
kts
18/11:30pm 9.0 6.3 7.5 90 0.7 W 11 15 6 8 1018.5 1018.3 1.4
18/11:00pm 9.2 6.2 7.8 91 0.7 W 13 19 7 10 1018.6 1018.4 1.4
18/10:30pm 9.6 6.0 8.2 91 0.7 W 17 26 9 14 1018.5 1018.3 1.4
18/10:00pm 9.8 6.2 8.2 90 0.8 W 17 24 9 13 1017.9 1017.7 1.4
18/09:30pm 9.8 7.0 8.4 91 0.7 WNW 13 19 7 10 1017.1 1016.9 1.4
18/09:00pm 9.7 7.2 8.3 91 0.7 WNW 11 19 6 10 1017.0 1016.8 1.2
18/08:30pm 9.7 6.8 8.3 91 0.7 WNW 13 19 7 10 1016.7 1016.5 1.2
18/08:00pm 9.8 7.0 8.6 92 0.6 W 13 19 7 10 1016.3 1016.1 1.0
18/07:30pm 9.8 6.2 8.4 91 0.7 WSW 17 28 9 15 1016.1 1015.9 0.6
18/07:00pm 9.8 6.3 8.7 93 0.5 WSW 17 30 9 16 1015.6 1015.5 0.6
18/06:30pm 9.7 5.6 8.5 92 0.6 WSW 20 39 11 21 1014.7 1014.5 0.2
18/06:00pm 11.2 7.6 10.0 92 0.6 WSW 19 32 10 17 1013.9 1013.7 0.0
18/05:30pm 12.3 7.3 9.5 83 1.4 SW 26 43 14 23 1013.0 1012.8 0.0
18/05:00pm 14.9 9.5 9.5 70 2.8 W 28 57 15 31 1011.7 1011.4 0.0
18/04:57pm 17.2 11.3 9.1 59 4.3 W 30 57 16 31 1011.0 1010.8 0.0
18/04:30pm 18.5 13.7 8.7 53 5.1 WNW 24 41 13 22 1010.7 1010.5 0.0
18/04:00pm 18.6 14.5 8.6 52 5.3 WNW 20 39 11 21 1010.8 1010.6 0.0
18/03:30pm 18.8 13.9 8.5 51 5.4 WNW 24 39 13 21 1010.6 1010.4 0.0
18/03:00pm 19.1 15.1 8.4 50 5.6 W 19 30 10 16 1010.6 1010.4 0.0
18/02:30pm 18.6 14.0 8.0 50 5.5 WNW 22 43 12 23 1010.8 1010.6 0.0
18/02:00pm 18.9 14.4 8.6 51 5.4 WNW 22 33 12 18 1010.9 1010.7 0.0
18/01:30pm 18.5 14.4 8.5 52 5.2 WNW 20 30 11 16 1011.6 1011.3 0.0
18/01:00pm 17.8 13.6 8.4 54 4.9 WNW 20 30 11 16 1011.8 1011.5 0.0
18/12:30pm 17.3 13.5 9.2 59 4.3 NW 19 30 10 16 1012.5 1012.3 0.0
18/12:00pm 15.6 11.8 7.6 59 4.0 WNW 17 28 9 15 1013.2 1013.0 0.0
18/11:30am 15.4 10.9 6.9 57 4.2 WNW 20 30 11 16 1013.5 1013.3 0.0
18/11:00am 15.1 10.4 7.6 61 3.8 NW 22 35 12 19 1013.6 1013.4 0.0
18/10:30am 14.2 10.2 9.2 72 2.6 WNW 20 33 11 18 1013.8 1013.6 0.0
18/10:00am 13.6 10.4 10.0 79 1.9 W 17 30 9 16 1014.2 1014.0 0.0
18/09:30am 12.7 8.9 9.9 83 1.5 W 20 28 11 15 1014.2 1014.0 0.0
18/09:00am 12.6 9.6 10.5 87 1.1 W 17 24 9 13 1014.1 1013.9 5.4
18/08:30am 12.9 11.5 10.8 87 1.1 NW 9 15 5 8 1013.9 1013.7 5.4
18/08:00am 12.2 11.0 10.4 89 0.9 NNW 7 11 4 6 1013.5 1013.3 5.4
18/07:30am 11.9 9.9 10.1 89 0.9 NW 11 17 6 9 1013.2 1013.0 5.4
18/07:00am 11.9 10.3 10.3 90 0.8 WNW 9 11 5 6 1013.1 1012.9 5.4
18/06:30am 11.8 10.6 10.2 90 0.8 NW 7 13 4 7 1013.1 1012.9 5.4
18/06:00am 11.9 10.8 10.5 91 0.7 NW 7 13 4 7 1012.9 1012.7 5.4
18/05:30am 11.8 10.7 10.5 92 0.7 NW 7 11 4 6 1012.9 1012.7 5.4
18/05:00am 11.9 10.8 10.8 93 0.6 WNW 7 11 4 6 1012.7 1012.5 5.4
18/04:30am 11.9 10.1 10.8 93 0.6 WNW 11 15 6 8 1012.8 1012.6 5.4
18/04:00am 11.8 10.0 10.9 94 0.5 NNW 11 17 6 9 1012.6 1012.4 5.4
18/03:30am 11.6 9.8 10.8 95 0.4 NW 11 17 6 9 1012.4 1012.2 5.4
18/03:00am 11.6 9.8 11.0 96 0.3 NW 11 15 6 8 1012.5 1012.3 5.4
18/02:30am 11.5 9.7 10.9 96 0.3 WNW 11 15 6 8 1012.7 1012.5 5.4
18/02:00am 11.6 10.2 11.0 96 0.3 W 9 13 5 7 1013.3 1013.1 5.4
18/01:30am 11.6 10.8 11.0 96 0.3 W 6 9 3 5 1013.7 1013.5 5.4
18/01:00am 11.4 10.3 10.8 96 0.3 W 7 11 4 6 1013.8 1013.6 5.2
18/12:30am 11.7 10.9 11.1 96 0.3 W 6 9 3 5 1014.1 1013.9 4.8
18/12:00am 11.7 11.7 11.1 96 0.3 WSW 2 4 1 2 1014.2 1014.0 4.0
 
Date/Time
EST
Temp
°C
App
Temp
°C
Dew
Point
Rel
Hum
%
Delta-T
°C
Wind Press
QNH
hPa
Press
MSL
hPa
Rain
since 9 am
mm
Dir
 
Spd
km/h
Gust
km/h
Spd
kts
Gust
kts
17/11:30pm 11.6 11.1 10.8 95 0.4 WSW 4 7 2 4 1014.5 1014.3 3.8
17/11:00pm 11.8 11.8 11.0 95 0.4 WSW 2 6 1 3 1015.0 1014.8 3.4
17/10:30pm 11.9 11.9 11.1 95 0.4 W 2 4 1 2 1015.5 1015.3 2.8
17/10:00pm 11.8 11.7 10.9 94 0.5 N 2 2 1 1 1015.4 1015.2 2.2
17/09:30pm 11.9 12.2 11.0 94 0.5 CALM 0 2 0 1 1015.3 1015.1 1.8
17/09:00pm 12.0 12.0 11.1 94 0.5 N 2 4 1 2 1015.7 1015.6 0.8
17/08:30pm 12.0 11.9 10.9 93 0.6 NNW 2 2 1 1 1015.7 1015.6 0.6
17/08:00pm 12.1 11.3 11.0 93 0.6 N 6 7 3 4 1016.1 1015.9 0.6
17/07:30pm 11.9 11.0 10.6 92 0.7 NNW 6 6 3 3 1016.5 1016.3 0.6
17/07:00pm 11.9 11.7 10.6 92 0.7 NNW 2 4 1 2 1016.5 1016.3 0.6
17/06:30pm 11.9 11.4 10.6 92 0.7 NNW 4 4 2 2 1016.4 1016.2 0.6
17/06:00pm 11.9 10.4 10.5 91 0.7 NNE 9 11 5 6 1016.4 1016.2 0.6
17/05:30pm 11.8 11.2 10.4 91 0.7 N 4 6 2 3 1016.7 1016.5 0.6
17/05:00pm 11.7 11.7 9.9 89 0.9 CALM 0 0 0 0 1016.9 1016.7 0.6
17/04:30pm 11.9 11.5 9.6 86 1.2 NW 2 7 1 4 1017.2 1017.0 0.6
17/04:00pm 12.9 12.3 10.3 84 1.4 NW 4 11 2 6 1018.4 1018.2 0.2
17/03:30pm 13.6 12.2 9.5 76 2.1 N 7 11 4 6 1018.4 1018.2 0.0
17/03:00pm 14.2 11.4 8.6 69 2.9 NE 13 15 7 8 1017.6 1017.4 0.0
17/02:30pm 14.7 11.8 8.0 64 3.4 N 13 17 7 9 1018.1 1017.9 0.0
17/02:00pm 14.9 12.7 7.7 62 3.6 NNE 9 13 5 7 1018.7 1018.5 0.0
17/01:30pm 14.6 12.7 7.4 62 3.6 NE 7 11 4 6 1019.2 1019.1 0.0
17/01:00pm 14.6 12.3 7.4 62 3.6 NE 9 13 5 7 1019.6 1019.5 0.0
17/12:30pm 14.5 11.5 7.5 63 3.5 NE 13 17 7 9 1020.2 1020.1 0.0
17/12:00pm 14.6 10.8 7.6 63 3.5 ENE 17 20 9 11 1021.0 1020.8 0.0
17/11:30am 14.8 11.5 8.1 64 3.4 NE 15 22 8 12 1021.6 1021.4 0.0
17/11:00am 14.6 10.9 8.1 65 3.3 ENE 17 24 9 13 1022.4 1022.2 0.0
17/10:30am 13.6 10.3 8.0 69 2.8 E 15 20 8 11 1022.9 1022.8 0.0
17/10:00am 13.0 10.0 7.7 70 2.6 ENE 13 20 7 11 1023.4 1023.3 0.0
17/09:30am 12.4 10.7 8.5 77 2.0 E 7 9 4 5 1023.8 1023.7 0.0
17/09:00am 11.7 10.0 8.4 80 1.6 ENE 7 9 4 5 1024.0 1023.9 0.0
17/08:30am 10.9 9.4 9.3 90 0.8 NE 7 11 4 6 1024.2 1024.1 0.0
17/08:00am 8.8 7.5 7.7 93 0.5 N 4 6 2 3 1024.0 1023.9 0.0
17/07:30am 7.9 6.1 7.0 94 0.4 N 6 6 3 3 1023.8 1023.7 0.0
17/07:00am 7.4 5.5 6.5 94 0.4 N 6 7 3 4 1023.5 1023.4 0.0
17/06:30am 7.0 5.0 6.1 94 0.4 N 6 6 3 3 1023.4 1023.3 0.0
17/06:00am 6.9 5.2 6.0 94 0.4 N 4 6 2 3 1023.4 1023.3 0.0
17/05:30am 6.9 4.8 6.0 94 0.4 N 6 6 3 3 1023.3 1023.2 0.0
17/05:00am 7.0 4.9 5.9 93 0.5 N 6 7 3 4 1023.4 1023.3 0.0
17/04:30am 7.3 5.3 6.2 93 0.5 N 6 6 3 3 1023.4 1023.3 0.0
17/04:00am 7.6 6.8 6.4 92 0.6 CALM 0 2 0 1 1023.3 1023.2 0.0
17/03:30am 8.0 7.2 6.6 91 0.7 CALM 0 0 0 0 1022.9 1022.8 0.0
17/03:00am 8.3 7.2 6.9 91 0.7 E 2 6 1 3 1023.2 1023.1 0.0
17/02:30am 8.3 6.8 6.8 90 0.7 NNE 4 6 2 3 1023.6 1023.5 0.0
17/02:00am 9.0 7.6 7.3 89 0.8 NE 4 6 2 3 1024.1 1024.0 0.0
17/01:30am 9.4 8.8 7.5 88 0.9 CALM 0 0 0 0 1024.7 1024.6 0.0
17/01:00am 9.3 8.7 7.4 88 0.9 CALM 0 4 0 2 1025.2 1025.0 0.0
17/12:30am 9.8 9.2 7.2 84 1.2 CALM 0 0 0 0 1025.1 1024.9 0.0
17/12:00am 9.9 9.3 7.3 84 1.2 CALM 0 6 0 3 1026.1 1025.9 0.0
 
Date/Time
EST
Temp
°C
App
Temp
°C
Dew
Point
Rel
Hum
%
Delta-T
°C
Wind Press
QNH
hPa
Press
MSL
hPa
Rain
since 9 am
mm
Dir
 
Spd
km/h
Gust
km/h
Spd
kts
Gust
kts
16/11:30pm 10.2 9.6 7.4 83 1.4 CALM 0 0 0 0 1026.4 1026.2 0.0
16/11:00pm 10.5 10.0 7.7 83 1.4 CALM 0 0 0 0 1026.6 1026.5 0.0
16/10:30pm 10.7 10.2 7.9 83 1.4 CALM 0 0 0 0 1026.8 1026.7 0.0
16/10:00pm 10.6 10.1 8.0 84 1.3 CALM 0 0 0 0 1026.8 1026.7 0.0
16/09:30pm 10.7 10.2 7.8 82 1.4 CALM 0 0 0 0 1026.6 1026.5 0.0
16/09:00pm 11.0 10.4 7.3 78 1.8 CALM 0 0 0 0 1026.6 1026.5 0.0
16/08:30pm 11.3 9.9 7.2 76 2.0 SSE 4 6 2 3 1026.7 1026.6 0.0
16/08:00pm 11.3 10.3 7.4 77 1.9 SSE 2 4 1 2 1026.6 1026.5 0.0
16/07:30pm 11.3 9.9 7.4 77 1.9 ESE 4 4 2 2 1026.6 1026.5 0.0
16/07:00pm 11.5 9.8 7.4 76 2.0 SE 6 7 3 4 1026.0 1025.8 0.0
16/06:30pm 11.9 10.0 7.4 74 2.2 SE 7 9 4 5 1025.6 1025.4 0.0
16/06:00pm 12.4 9.7 7.3 71 2.5 SE 11 15 6 8 1025.5 1025.3 0.0
16/05:30pm 13.2 10.6 7.6 69 2.8 SE 11 15 6 8 1025.3 1025.1 0.0
16/05:00pm 14.0 11.4 7.8 66 3.1 SE 11 17 6 9 1025.0 1024.8 0.0
16/04:30pm 14.9 12.3 7.7 62 3.6 SE 11 19 6 10 1024.7 1024.6 0.0
16/04:00pm 15.8 13.1 5.4 50 5.0 SSW 9 13 5 7 1024.6 1024.5 0.0
16/03:30pm 16.3 13.7 5.9 50 5.1 SSW 9 13 5 7 1024.6 1024.5 0.0
16/03:00pm 16.5 13.1 6.1 50 5.1 SSW 13 19 7 10 1024.4 1024.3 0.0
16/02:30pm 16.7 13.8 4.7 45 5.7 SSW 9 15 5 8 1024.2 1024.1 0.0
16/02:00pm 17.1 14.9 6.0 48 5.4 SSW 7 13 4 7 1024.3 1024.2 0.0
16/01:30pm 16.7 14.5 6.2 50 5.2 WSW 7 15 4 8 1024.6 1024.5 0.0
16/01:00pm 16.0 13.5 6.4 53 4.7 WSW 9 13 5 7 1025.1 1024.9 0.0
16/12:30pm 15.8 13.5 7.6 58 4.1 W 9 15 5 8 1025.4 1025.2 0.0
16/12:00pm 14.6 12.2 7.2 61 3.7 SW 9 17 5 9 1025.8 1025.6 0.0
16/11:30am 14.7 11.9 7.0 60 3.8 WSW 11 19 6 10 1026.2 1026.0 0.0
16/11:00am 14.9 12.5 7.2 60 3.8 SW 9 19 5 10 1025.9 1025.7 0.0
16/10:30am 14.1 11.5 7.9 66 3.1 SW 11 19 6 10 1026.2 1026.0 0.0
16/10:00am 13.5 10.9 7.9 69 2.8 WSW 11 17 6 9 1026.1 1025.9 0.0

Other Formats:

Comma delimited format used in spreadsheet applications
http://www.bom.gov.au/fwo/IDV60801/IDV60801.94863.axf

JavaScript Object Notation format (JSON) in row-major order
http://www.bom.gov.au/fwo/IDV60801/IDV60801.94863.json